createdAt,value
2023-01-11T00:07:40.193Z,100419.28
2023-01-11T00:17:41.869Z,100415.78
2023-01-11T00:27:43.187Z,100418.34
2023-01-11T00:37:44.516Z,100400.91
2023-01-11T00:47:58.041Z,100367.91
2023-01-11T00:57:59.434Z,100356.59
2023-01-11T01:08:00.736Z,100347.94
2023-01-11T01:18:02.010Z,100339.19
2023-01-11T01:28:03.250Z,100340.00
2023-01-11T01:38:04.552Z,100347.00
2023-01-11T01:48:06.822Z,100340.06
2023-01-11T01:58:08.184Z,100341.88
2023-01-11T02:08:09.455Z,100346.25
2023-01-11T02:18:10.791Z,100337.59
2023-01-11T02:28:12.158Z,100332.44
2023-01-11T02:38:13.498Z,100320.31
2023-01-11T02:48:14.972Z,100317.72
2023-01-11T02:58:16.267Z,100295.16
2023-01-11T03:08:17.514Z,100276.88
2023-01-11T03:18:18.804Z,100269.88
2023-01-11T03:28:20.041Z,100265.47
2023-01-11T03:38:21.275Z,100263.66
2023-01-11T03:48:22.594Z,100256.59
2023-01-11T03:58:23.878Z,100253.06
2023-01-11T04:08:25.219Z,100242.56
2023-01-11T04:18:26.545Z,100224.22
2023-01-11T04:28:27.872Z,100208.53
2023-01-11T04:38:29.186Z,100212.78
2023-01-11T04:48:30.516Z,100190.03
2023-01-11T04:58:31.807Z,100186.38
2023-01-11T05:08:33.156Z,100187.13
2023-01-11T05:18:34.410Z,100166.97
2023-01-11T05:28:35.689Z,100159.13
2023-01-11T05:38:36.946Z,100151.09
2023-01-11T05:48:38.263Z,100130.16
2023-01-11T05:58:39.539Z,100143.06
2023-01-11T06:08:40.826Z,100127.41
2023-01-11T06:18:42.153Z,100127.28
2023-01-11T06:28:43.439Z,100110.81
2023-01-11T06:38:44.707Z,100084.63
2023-01-11T06:48:46.059Z,100083.91
2023-01-11T06:58:47.823Z,100058.38
2023-01-11T07:08:49.880Z,100055.72
2023-01-11T07:18:51.160Z,100048.75
2023-01-11T07:28:52.408Z,100058.25
2023-01-11T07:38:53.665Z,100063.31
2023-01-11T07:48:54.988Z,100064.16
2023-01-11T07:58:56.255Z,100070.81
2023-01-11T08:08:57.505Z,100079.88
2023-01-11T08:18:58.810Z,100082.66
2023-01-11T08:29:00.120Z,100087.72
2023-01-11T08:39:01.408Z,100093.09
2023-01-11T08:49:02.721Z,100092.28
2023-01-11T08:59:04.416Z,100093.97
2023-01-11T09:09:05.700Z,100105.22
2023-01-11T09:19:12.500Z,100107.09
2023-01-11T09:29:30.549Z,100106.25
2023-01-11T09:39:33.325Z,100119.31
2023-01-11T09:49:34.677Z,100128.75
2023-01-11T09:59:38.082Z,100139.28
2023-01-11T10:20:01.526Z,100137.59
2023-01-11T10:30:13.581Z,100134.94
2023-01-11T10:40:33.529Z,100127.84
2023-01-11T10:50:34.875Z,100120.66
2023-01-11T11:00:36.626Z,100129.41
2023-01-11T11:10:38.001Z,100129.31
2023-01-11T11:20:39.566Z,100128.44
2023-01-11T11:30:41.012Z,100137.31
2023-01-11T11:40:42.356Z,100129.47
2023-01-11T11:50:45.498Z,100128.63
2023-01-11T12:00:48.203Z,100131.13
2023-01-11T12:10:49.497Z,100148.56
2023-01-11T12:20:50.867Z,100151.31
2023-01-11T12:30:52.200Z,100129.13
2023-01-11T12:40:53.685Z,100121.00
2023-01-11T12:50:55.045Z,100135.00
2023-01-11T13:00:56.333Z,100146.16
2023-01-11T13:10:57.740Z,100146.97
2023-01-11T13:21:01.793Z,100164.56
2023-01-11T13:31:03.688Z,100178.34
2023-01-11T13:41:05.045Z,100211.47
2023-01-11T13:51:06.317Z,100202.47
2023-01-11T14:01:08.277Z,100208.75
2023-01-11T14:11:09.613Z,100229.75
2023-01-11T14:21:10.894Z,100235.13
2023-01-11T14:31:12.281Z,100255.22
2023-01-11T14:41:13.607Z,100270.13
2023-01-11T14:51:14.942Z,100285.75
2023-01-11T15:01:16.308Z,100309.53
2023-01-11T15:11:17.588Z,100318.59
2023-01-11T15:21:18.835Z,100321.34
2023-01-11T15:31:21.621Z,100344.22
2023-01-11T15:41:48.857Z,100357.22
2023-01-11T15:51:50.248Z,100378.31
2023-01-11T16:02:07.357Z,100400.13
2023-01-11T16:22:54.780Z,100451.63
2023-01-11T17:04:29.613Z,100498.13
2023-01-11T17:14:31.159Z,100510.38
2023-01-11T17:24:57.698Z,100542.59
2023-01-11T17:35:29.446Z,100556.53
2023-01-11T18:17:42.628Z,100612.09
2023-01-11T18:28:00.056Z,100637.25
2023-01-11T18:38:01.468Z,100645.97
2023-01-11T18:48:02.737Z,100669.38
2023-01-11T18:58:04.014Z,100687.56
2023-01-11T19:08:05.286Z,100683.19
2023-01-11T19:18:07.082Z,100700.56
2023-01-11T19:28:08.509Z,100711.09
2023-01-11T19:38:10.305Z,100716.28
2023-01-11T19:48:12.366Z,100715.44
2023-01-11T19:58:14.515Z,100713.66
2023-01-11T20:08:17.055Z,100721.44
2023-01-11T20:18:18.341Z,100717.09
2023-01-11T20:28:20.724Z,100708.38
2023-01-11T20:38:22.111Z,100713.63
2023-01-11T20:48:23.430Z,100694.53
2023-01-11T20:58:24.710Z,100692.78
2023-01-11T21:08:26.196Z,100690.13
2023-01-11T21:18:27.945Z,100687.47
2023-01-11T21:28:29.259Z,100689.25
2023-01-11T21:38:31.246Z,100677.16
2023-01-11T21:48:32.545Z,100665.88
2023-01-11T21:58:33.855Z,100661.50
2023-01-11T22:08:35.174Z,100671.97
2023-01-11T22:18:36.479Z,100662.38
2023-01-11T22:28:57.705Z,100680.59
2023-01-11T22:38:59.013Z,100674.56
2023-01-11T22:49:00.324Z,100679.78
2023-01-11T22:59:01.873Z,100685.81
2023-01-11T23:09:03.162Z,100677.19
2023-01-11T23:19:04.415Z,100679.81
2023-01-11T23:29:05.728Z,100673.72
2023-01-11T23:39:07.100Z,100675.50
2023-01-11T23:49:08.417Z,100647.72
2023-01-11T23:59:09.776Z,100646.81
